sensor_id;sensor_type;location;lat;lon;timestamp;temperature;humidity
72440;DHT22;60446;50.752;4.352;2023-02-28T00:01:08;-1.10;68.50
72440;DHT22;60446;50.752;4.352;2023-02-28T00:04:10;-1.10;68.70
72440;DHT22;60446;50.752;4.352;2023-02-28T00:10:23;-1.20;68.90
72440;DHT22;60446;50.752;4.352;2023-02-28T00:13:29;-1.20;69.10
72440;DHT22;60446;50.752;4.352;2023-02-28T00:20:08;-1.30;69.30
72440;DHT22;60446;50.752;4.352;2023-02-28T00:23:18;-1.30;69.30
72440;DHT22;60446;50.752;4.352;2023-02-28T00:26:02;-1.40;69.60
72440;DHT22;60446;50.752;4.352;2023-02-28T00:28:44;-1.40;69.80
72440;DHT22;60446;50.752;4.352;2023-02-28T00:31:47;-1.40;69.80
72440;DHT22;60446;50.752;4.352;2023-02-28T00:34:51;-1.50;69.90
72440;DHT22;60446;50.752;4.352;2023-02-28T00:37:57;-1.50;70.00
72440;DHT22;60446;50.752;4.352;2023-02-28T00:41:46;-1.50;70.00
72440;DHT22;60446;50.752;4.352;2023-02-28T00:44:50;-1.50;70.10
72440;DHT22;60446;50.752;4.352;2023-02-28T00:47:52;-1.50;70.00
72440;DHT22;60446;50.752;4.352;2023-02-28T00:50:38;-1.50;70.10
72440;DHT22;60446;50.752;4.352;2023-02-28T00:53:27;-1.50;70.20
72440;DHT22;60446;50.752;4.352;2023-02-28T00:56:15;-1.50;70.20
72440;DHT22;60446;50.752;4.352;2023-02-28T00:59:16;-1.50;70.40
72440;DHT22;60446;50.752;4.352;2023-02-28T01:02:08;-1.50;70.40
72440;DHT22;60446;50.752;4.352;2023-02-28T01:05:21;-1.50;70.30
72440;DHT22;60446;50.752;4.352;2023-02-28T01:08:27;-1.60;70.40
72440;DHT22;60446;50.752;4.352;2023-02-28T01:11:10;-1.60;70.60
72440;DHT22;60446;50.752;4.352;2023-02-28T01:18:18;-1.70;70.70
72440;DHT22;60446;50.752;4.352;2023-02-28T01:21:16;-1.70;70.90
72440;DHT22;60446;50.752;4.352;2023-02-28T01:24:01;-1.80;71.00
72440;DHT22;60446;50.752;4.352;2023-02-28T01:26:58;-1.80;71.00
72440;DHT22;60446;50.752;4.352;2023-02-28T01:29:59;-1.80;71.20
72440;DHT22;60446;50.752;4.352;2023-02-28T01:32:37;-1.90;71.30
72440;DHT22;60446;50.752;4.352;2023-02-28T01:35:16;-1.90;71.40
72440;DHT22;60446;50.752;4.352;2023-02-28T01:37:57;-1.90;71.70
72440;DHT22;60446;50.752;4.352;2023-02-28T01:41:23;-2.00;71.80
72440;DHT22;60446;50.752;4.352;2023-02-28T01:48:03;-2.00;72.10
72440;DHT22;60446;50.752;4.352;2023-02-28T01:50:50;-2.00;72.30
72440;DHT22;60446;50.752;4.352;2023-02-28T01:54:03;-2.10;72.40
72440;DHT22;60446;50.752;4.352;2023-02-28T01:57:18;-2.10;72.40
72440;DHT22;60446;50.752;4.352;2023-02-28T02:00:15;-2.10;72.50
72440;DHT22;60446;50.752;4.352;2023-02-28T02:03:07;-2.10;72.60
72440;DHT22;60446;50.752;4.352;2023-02-28T02:06:07;-2.10;72.60
72440;DHT22;60446;50.752;4.352;2023-02-28T02:08:37;-2.10;72.70
72440;DHT22;60446;50.752;4.352;2023-02-28T02:11:32;-2.10;72.70
72440;DHT22;60446;50.752;4.352;2023-02-28T02:14:32;-2.10;72.50
72440;DHT22;60446;50.752;4.352;2023-02-28T02:17:38;-2.10;72.60
72440;DHT22;60446;50.752;4.352;2023-02-28T02:23:54;-2.10;72.60
72440;DHT22;60446;50.752;4.352;2023-02-28T02:34:35;-2.20;72.80
72440;DHT22;60446;50.752;4.352;2023-02-28T02:40:38;-2.20;72.90
72440;DHT22;60446;50.752;4.352;2023-02-28T02:43:58;-2.20;73.00
72440;DHT22;60446;50.752;4.352;2023-02-28T02:47:34;-2.30;73.10
72440;DHT22;60446;50.752;4.352;2023-02-28T02:50:17;-2.30;73.20
72440;DHT22;60446;50.752;4.352;2023-02-28T02:57:31;-2.40;73.60
72440;DHT22;60446;50.752;4.352;2023-02-28T03:00:09;-2.40;73.80
72440;DHT22;60446;50.752;4.352;2023-02-28T03:03:12;-2.40;73.60
72440;DHT22;60446;50.752;4.352;2023-02-28T03:06:06;-2.40;73.50
72440;DHT22;60446;50.752;4.352;2023-02-28T03:09:03;-2.40;73.50
72440;DHT22;60446;50.752;4.352;2023-02-28T03:11:55;-2.40;73.60
72440;DHT22;60446;50.752;4.352;2023-02-28T03:15:12;-2.50;73.60
72440;DHT22;60446;50.752;4.352;2023-02-28T03:18:32;-2.50;73.60
72440;DHT22;60446;50.752;4.352;2023-02-28T03:25:16;-2.50;73.70
72440;DHT22;60446;50.752;4.352;2023-02-28T03:34:17;-2.60;73.90
72440;DHT22;60446;50.752;4.352;2023-02-28T03:36:56;-2.60;73.90
72440;DHT22;60446;50.752;4.352;2023-02-28T03:39:47;-2.60;74.10
72440;DHT22;60446;50.752;4.352;2023-02-28T03:43:09;-2.60;74.00
72440;DHT22;60446;50.752;4.352;2023-02-28T03:45:51;-2.60;74.00
72440;DHT22;60446;50.752;4.352;2023-02-28T03:48:54;-2.60;74.10
72440;DHT22;60446;50.752;4.352;2023-02-28T03:51:41;-2.60;74.00
72440;DHT22;60446;50.752;4.352;2023-02-28T03:54:27;-2.60;73.90
72440;DHT22;60446;50.752;4.352;2023-02-28T03:57:42;-2.50;73.80
72440;DHT22;60446;50.752;4.352;2023-02-28T04:01:07;-2.60;73.80
72440;DHT22;60446;50.752;4.352;2023-02-28T04:03:58;-2.60;73.80
72440;DHT22;60446;50.752;4.352;2023-02-28T04:06:37;-2.60;73.60
72440;DHT22;60446;50.752;4.352;2023-02-28T04:09:33;-2.60;73.80
72440;DHT22;60446;50.752;4.352;2023-02-28T04:12:45;-2.70;73.90
72440;DHT22;60446;50.752;4.352;2023-02-28T04:15:14;-2.70;74.10
72440;DHT22;60446;50.752;4.352;2023-02-28T04:17:44;-2.70;74.10
72440;DHT22;60446;50.752;4.352;2023-02-28T04:20:28;-2.70;74.30
72440;DHT22;60446;50.752;4.352;2023-02-28T04:23:03;-2.70;74.20
72440;DHT22;60446;50.752;4.352;2023-02-28T04:26:06;-2.80;74.40
72440;DHT22;60446;50.752;4.352;2023-02-28T04:28:59;-2.70;74.40
72440;DHT22;60446;50.752;4.352;2023-02-28T04:31:51;-2.70;74.60
72440;DHT22;60446;50.752;4.352;2023-02-28T04:34:32;-2.80;74.80
72440;DHT22;60446;50.752;4.352;2023-02-28T04:37:12;-2.80;74.90
72440;DHT22;60446;50.752;4.352;2023-02-28T04:39:57;-2.80;74.90
72440;DHT22;60446;50.752;4.352;2023-02-28T04:42:52;-2.90;75.10
72440;DHT22;60446;50.752;4.352;2023-02-28T04:45:40;-2.80;75.00
72440;DHT22;60446;50.752;4.352;2023-02-28T04:48:13;-2.90;75.10
72440;DHT22;60446;50.752;4.352;2023-02-28T04:51:11;-2.90;75.10
72440;DHT22;60446;50.752;4.352;2023-02-28T04:54:07;-2.90;75.20
72440;DHT22;60446;50.752;4.352;2023-02-28T04:56:55;-2.90;75.40
72440;DHT22;60446;50.752;4.352;2023-02-28T04:59:40;-2.90;75.20
72440;DHT22;60446;50.752;4.352;2023-02-28T05:02:22;-2.90;75.30
72440;DHT22;60446;50.752;4.352;2023-02-28T05:05:06;-3.00;75.50
72440;DHT22;60446;50.752;4.352;2023-02-28T05:08:23;-3.00;75.70
72440;DHT22;60446;50.752;4.352;2023-02-28T05:11:31;-3.00;75.60
72440;DHT22;60446;50.752;4.352;2023-02-28T05:14:52;-3.00;75.80
72440;DHT22;60446;50.752;4.352;2023-02-28T05:17:33;-3.00;75.80
72440;DHT22;60446;50.752;4.352;2023-02-28T05:20:08;-3.00;76.00
72440;DHT22;60446;50.752;4.352;2023-02-28T05:23:17;-3.00;76.10
72440;DHT22;60446;50.752;4.352;2023-02-28T05:26:33;-3.00;76.00
72440;DHT22;60446;50.752;4.352;2023-02-28T05:29:56;-3.00;76.10
72440;DHT22;60446;50.752;4.352;2023-02-28T05:33:20;-3.00;76.30
72440;DHT22;60446;50.752;4.352;2023-02-28T05:36:18;-3.00;76.10
72440;DHT22;60446;50.752;4.352;2023-02-28T05:39:14;-3.00;76.30
72440;DHT22;60446;50.752;4.352;2023-02-28T05:42:24;-3.00;76.30
72440;DHT22;60446;50.752;4.352;2023-02-28T05:45:16;-3.00;76.50
72440;DHT22;60446;50.752;4.352;2023-02-28T05:48:16;-2.90;76.40
72440;DHT22;60446;50.752;4.352;2023-02-28T05:51:12;-2.90;76.30
72440;DHT22;60446;50.752;4.352;2023-02-28T05:54:38;-2.80;76.30
72440;DHT22;60446;50.752;4.352;2023-02-28T05:57:40;-2.80;76.10
72440;DHT22;60446;50.752;4.352;2023-02-28T06:00:41;-2.70;76.00
72440;DHT22;60446;50.752;4.352;2023-02-28T06:06:49;-2.60;76.10
72440;DHT22;60446;50.752;4.352;2023-02-28T06:09:29;-2.60;75.90
72440;DHT22;60446;50.752;4.352;2023-02-28T06:12:00;-2.50;75.60
72440;DHT22;60446;50.752;4.352;2023-02-28T06:14:47;-2.50;75.60
72440;DHT22;60446;50.752;4.352;2023-02-28T06:17:36;-2.50;75.50
72440;DHT22;60446;50.752;4.352;2023-02-28T06:20:22;-2.40;75.30
72440;DHT22;60446;50.752;4.352;2023-02-28T06:23:28;-2.40;75.30
72440;DHT22;60446;50.752;4.352;2023-02-28T06:26:16;-2.40;75.10
72440;DHT22;60446;50.752;4.352;2023-02-28T06:29:22;-2.40;75.20
72440;DHT22;60446;50.752;4.352;2023-02-28T06:32:38;-2.40;75.10
72440;DHT22;60446;50.752;4.352;2023-02-28T06:35:22;-2.40;74.90
72440;DHT22;60446;50.752;4.352;2023-02-28T06:38:00;-2.30;74.80
72440;DHT22;60446;50.752;4.352;2023-02-28T06:40:28;-2.30;74.40
72440;DHT22;60446;50.752;4.352;2023-02-28T06:43:05;-2.20;74.30
72440;DHT22;60446;50.752;4.352;2023-02-28T06:45:54;-2.10;74.10
72440;DHT22;60446;50.752;4.352;2023-02-28T06:48:26;-2.10;74.00
72440;DHT22;60446;50.752;4.352;2023-02-28T06:51:12;-2.10;74.10
72440;DHT22;60446;50.752;4.352;2023-02-28T06:53:58;-2.00;73.80
72440;DHT22;60446;50.752;4.352;2023-02-28T06:56:28;-2.00;73.80
72440;DHT22;60446;50.752;4.352;2023-02-28T06:58:57;-2.00;74.00
72440;DHT22;60446;50.752;4.352;2023-02-28T07:01:24;-2.10;74.20
72440;DHT22;60446;50.752;4.352;2023-02-28T07:03:52;-2.10;74.50
72440;DHT22;60446;50.752;4.352;2023-02-28T07:06:20;-2.00;74.00
72440;DHT22;60446;50.752;4.352;2023-02-28T07:08:51;-2.00;73.80
72440;DHT22;60446;50.752;4.352;2023-02-28T07:11:22;-1.90;73.60
72440;DHT22;60446;50.752;4.352;2023-02-28T07:13:56;-1.90;73.90
72440;DHT22;60446;50.752;4.352;2023-02-28T07:16:24;-1.80;73.80
72440;DHT22;60446;50.752;4.352;2023-02-28T07:18:53;-1.80;73.60
72440;DHT22;60446;50.752;4.352;2023-02-28T07:21:20;-1.70;73.00
72440;DHT22;60446;50.752;4.352;2023-02-28T07:23:48;-1.70;73.50
72440;DHT22;60446;50.752;4.352;2023-02-28T07:26:19;-1.70;72.90
72440;DHT22;60446;50.752;4.352;2023-02-28T07:28:48;-1.60;73.00
72440;DHT22;60446;50.752;4.352;2023-02-28T07:31:16;-1.60;72.30
72440;DHT22;60446;50.752;4.352;2023-02-28T07:33:47;-1.50;72.30
72440;DHT22;60446;50.752;4.352;2023-02-28T07:36:20;-1.40;71.90
72440;DHT22;60446;50.752;4.352;2023-02-28T07:38:49;-1.40;71.40
72440;DHT22;60446;50.752;4.352;2023-02-28T07:41:22;-1.30;70.90
72440;DHT22;60446;50.752;4.352;2023-02-28T07:43:54;-1.30;70.70
72440;DHT22;60446;50.752;4.352;2023-02-28T07:46:25;-1.30;71.00
72440;DHT22;60446;50.752;4.352;2023-02-28T07:49:05;-1.30;71.00
72440;DHT22;60446;50.752;4.352;2023-02-28T07:51:38;-1.30;70.60
72440;DHT22;60446;50.752;4.352;2023-02-28T07:54:10;-1.20;70.10
72440;DHT22;60446;50.752;4.352;2023-02-28T07:56:47;-1.20;69.60
72440;DHT22;60446;50.752;4.352;2023-02-28T07:59:36;-1.10;68.80
72440;DHT22;60446;50.752;4.352;2023-02-28T08:02:03;-1.10;68.70
72440;DHT22;60446;50.752;4.352;2023-02-28T08:05:14;-1.10;68.50
72440;DHT22;60446;50.752;4.352;2023-02-28T08:07:50;-1.00;68.80
72440;DHT22;60446;50.752;4.352;2023-02-28T08:10:30;-0.90;66.40
72440;DHT22;60446;50.752;4.352;2023-02-28T08:13:00;-0.90;66.40
72440;DHT22;60446;50.752;4.352;2023-02-28T08:15:56;-0.80;66.40
72440;DHT22;60446;50.752;4.352;2023-02-28T08:18:35;-0.80;66.40
72440;DHT22;60446;50.752;4.352;2023-02-28T08:21:15;-0.80;65.90
72440;DHT22;60446;50.752;4.352;2023-02-28T08:23:58;-0.80;64.80
72440;DHT22;60446;50.752;4.352;2023-02-28T08:27:15;-0.70;64.80
72440;DHT22;60446;50.752;4.352;2023-02-28T08:29:57;-0.70;64.20
72440;DHT22;60446;50.752;4.352;2023-02-28T08:32:46;-0.60;63.30
72440;DHT22;60446;50.752;4.352;2023-02-28T08:35:26;-0.50;63.80
72440;DHT22;60446;50.752;4.352;2023-02-28T08:38:11;-0.40;63.20
72440;DHT22;60446;50.752;4.352;2023-02-28T08:41:37;-0.40;62.60
72440;DHT22;60446;50.752;4.352;2023-02-28T08:44:38;-0.20;61.30
72440;DHT22;60446;50.752;4.352;2023-02-28T08:47:53;-0.20;62.00
72440;DHT22;60446;50.752;4.352;2023-02-28T08:51:01;-0.20;61.60
72440;DHT22;60446;50.752;4.352;2023-02-28T08:54:00;-0.10;62.10
72440;DHT22;60446;50.752;4.352;2023-02-28T08:57:20;0.00;61.40
72440;DHT22;60446;50.752;4.352;2023-02-28T09:00:21;0.10;60.90
72440;DHT22;60446;50.752;4.352;2023-02-28T09:03:16;0.10;60.30
72440;DHT22;60446;50.752;4.352;2023-02-28T09:06:14;0.20;61.50
72440;DHT22;60446;50.752;4.352;2023-02-28T09:08:51;0.30;61.30
72440;DHT22;60446;50.752;4.352;2023-02-28T09:11:36;0.40;59.60
72440;DHT22;60446;50.752;4.352;2023-02-28T09:14:15;0.40;59.60
72440;DHT22;60446;50.752;4.352;2023-02-28T09:17:18;0.50;59.90
72440;DHT22;60446;50.752;4.352;2023-02-28T09:20:29;0.50;59.20
72440;DHT22;60446;50.752;4.352;2023-02-28T09:23:13;0.60;59.30
72440;DHT22;60446;50.752;4.352;2023-02-28T09:26:06;0.70;57.40
72440;DHT22;60446;50.752;4.352;2023-02-28T09:28:52;0.70;56.90
72440;DHT22;60446;50.752;4.352;2023-02-28T09:31:29;0.60;56.70
72440;DHT22;60446;50.752;4.352;2023-02-28T09:34:04;0.60;57.40
72440;DHT22;60446;50.752;4.352;2023-02-28T09:36:49;0.60;58.30
72440;DHT22;60446;50.752;4.352;2023-02-28T09:39:27;0.70;57.10
72440;DHT22;60446;50.752;4.352;2023-02-28T09:42:04;0.80;57.50
72440;DHT22;60446;50.752;4.352;2023-02-28T09:45:02;0.90;56.60
72440;DHT22;60446;50.752;4.352;2023-02-28T09:48:48;0.90;55.90
72440;DHT22;60446;50.752;4.352;2023-02-28T09:54:32;1.00;54.50
72440;DHT22;60446;50.752;4.352;2023-02-28T09:57:40;0.90;53.90
72440;DHT22;60446;50.752;4.352;2023-02-28T10:00:32;1.00;54.40
72440;DHT22;60446;50.752;4.352;2023-02-28T10:04:05;1.10;53.80
72440;DHT22;60446;50.752;4.352;2023-02-28T10:06:58;1.10;52.70
72440;DHT22;60446;50.752;4.352;2023-02-28T10:11:05;1.10;52.90
72440;DHT22;60446;50.752;4.352;2023-02-28T10:17:38;1.20;51.30
72440;DHT22;60446;50.752;4.352;2023-02-28T10:20:53;1.30;52.30
72440;DHT22;60446;50.752;4.352;2023-02-28T10:23:48;1.30;50.40
72440;DHT22;60446;50.752;4.352;2023-02-28T10:26:39;1.30;49.30
72440;DHT22;60446;50.752;4.352;2023-02-28T10:30:20;1.40;50.20
72440;DHT22;60446;50.752;4.352;2023-02-28T10:33:34;1.60;50.40
72440;DHT22;60446;50.752;4.352;2023-02-28T10:36:36;1.80;48.80
72440;DHT22;60446;50.752;4.352;2023-02-28T10:39:54;1.90;49.70
72440;DHT22;60446;50.752;4.352;2023-02-28T10:43:03;1.90;49.40
72440;DHT22;60446;50.752;4.352;2023-02-28T10:46:32;1.90;47.80
72440;DHT22;60446;50.752;4.352;2023-02-28T10:49:17;1.80;48.20
72440;DHT22;60446;50.752;4.352;2023-02-28T10:52:43;2.00;48.90
72440;DHT22;60446;50.752;4.352;2023-02-28T10:55:36;2.10;48.00
72440;DHT22;60446;50.752;4.352;2023-02-28T11:05:44;2.10;47.30
72440;DHT22;60446;50.752;4.352;2023-02-28T11:12:39;2.10;47.00
72440;DHT22;60446;50.752;4.352;2023-02-28T11:15:28;2.10;46.60
72440;DHT22;60446;50.752;4.352;2023-02-28T11:18:32;2.20;45.20
72440;DHT22;60446;50.752;4.352;2023-02-28T11:22:02;2.10;44.80
72440;DHT22;60446;50.752;4.352;2023-02-28T11:25:46;2.20;47.00
72440;DHT22;60446;50.752;4.352;2023-02-28T11:29:05;2.20;46.30
72440;DHT22;60446;50.752;4.352;2023-02-28T11:32:24;2.50;46.80
72440;DHT22;60446;50.752;4.352;2023-02-28T11:37:47;2.60;46.60
72440;DHT22;60446;50.752;4.352;2023-02-28T11:40:59;2.70;47.10
72440;DHT22;60446;50.752;4.352;2023-02-28T11:47:00;2.70;46.80
72440;DHT22;60446;50.752;4.352;2023-02-28T11:50:04;2.80;47.80
72440;DHT22;60446;50.752;4.352;2023-02-28T12:01:01;3.10;46.60
72440;DHT22;60446;50.752;4.352;2023-02-28T12:13:21;3.30;47.10
72440;DHT22;60446;50.752;4.352;2023-02-28T12:19:25;3.10;45.10
72440;DHT22;60446;50.752;4.352;2023-02-28T12:25:49;2.90;45.60
72440;DHT22;60446;50.752;4.352;2023-02-28T12:28:32;3.30;46.10
72440;DHT22;60446;50.752;4.352;2023-02-28T12:31:11;3.40;45.30
72440;DHT22;60446;50.752;4.352;2023-02-28T12:33:46;3.40;44.10
72440;DHT22;60446;50.752;4.352;2023-02-28T12:36:18;3.30;44.10
72440;DHT22;60446;50.752;4.352;2023-02-28T12:39:00;3.30;44.50
72440;DHT22;60446;50.752;4.352;2023-02-28T12:41:51;3.30;45.00
72440;DHT22;60446;50.752;4.352;2023-02-28T12:44:54;3.20;43.10
72440;DHT22;60446;50.752;4.352;2023-02-28T12:47:51;3.10;42.40
72440;DHT22;60446;50.752;4.352;2023-02-28T12:50:28;3.00;42.70
72440;DHT22;60446;50.752;4.352;2023-02-28T13:11:46;3.90;44.50
72440;DHT22;60446;50.752;4.352;2023-02-28T13:14:29;3.90;42.80
72440;DHT22;60446;50.752;4.352;2023-02-28T13:17:10;3.70;42.40
72440;DHT22;60446;50.752;4.352;2023-02-28T13:27:34;3.60;44.10
72440;DHT22;60446;50.752;4.352;2023-02-28T13:36:42;3.40;45.30
72440;DHT22;60446;50.752;4.352;2023-02-28T13:45:31;4.40;43.80
72440;DHT22;60446;50.752;4.352;2023-02-28T13:48:44;4.40;43.10
72440;DHT22;60446;50.752;4.352;2023-02-28T13:51:45;4.20;41.10
72440;DHT22;60446;50.752;4.352;2023-02-28T14:06:59;3.70;42.20
72440;DHT22;60446;50.752;4.352;2023-02-28T14:09:40;4.00;41.40
72440;DHT22;60446;50.752;4.352;2023-02-28T14:21:10;4.50;41.80
72440;DHT22;60446;50.752;4.352;2023-02-28T14:24:51;4.40;42.20
72440;DHT22;60446;50.752;4.352;2023-02-28T14:33:11;4.40;41.40
72440;DHT22;60446;50.752;4.352;2023-02-28T14:36:12;4.30;42.20
72440;DHT22;60446;50.752;4.352;2023-02-28T14:39:15;4.00;40.60
72440;DHT22;60446;50.752;4.352;2023-02-28T14:41:46;3.80;41.00
72440;DHT22;60446;50.752;4.352;2023-02-28T14:44:25;3.80;40.70
72440;DHT22;60446;50.752;4.352;2023-02-28T14:46:58;3.80;41.00
72440;DHT22;60446;50.752;4.352;2023-02-28T14:49:34;4.00;42.80
72440;DHT22;60446;50.752;4.352;2023-02-28T14:54:40;4.40;42.20
72440;DHT22;60446;50.752;4.352;2023-02-28T14:57:28;4.50;42.10
72440;DHT22;60446;50.752;4.352;2023-02-28T15:00:11;4.30;40.70
72440;DHT22;60446;50.752;4.352;2023-02-28T15:02:40;4.30;42.70
72440;DHT22;60446;50.752;4.352;2023-02-28T15:07:48;4.30;40.70
72440;DHT22;60446;50.752;4.352;2023-02-28T15:10:23;4.10;41.40
72440;DHT22;60446;50.752;4.352;2023-02-28T15:13:01;4.10;41.40
72440;DHT22;60446;50.752;4.352;2023-02-28T15:15:35;4.00;42.60
72440;DHT22;60446;50.752;4.352;2023-02-28T15:18:31;3.90;42.50
72440;DHT22;60446;50.752;4.352;2023-02-28T15:21:11;3.70;41.70
72440;DHT22;60446;50.752;4.352;2023-02-28T15:23:44;3.60;42.00
72440;DHT22;60446;50.752;4.352;2023-02-28T15:26:16;3.40;42.60
72440;DHT22;60446;50.752;4.352;2023-02-28T15:28:50;3.40;41.70
72440;DHT22;60446;50.752;4.352;2023-02-28T15:31:55;3.30;42.80
72440;DHT22;60446;50.752;4.352;2023-02-28T15:34:38;3.30;43.10
72440;DHT22;60446;50.752;4.352;2023-02-28T15:37:37;3.30;43.40
72440;DHT22;60446;50.752;4.352;2023-02-28T15:42:56;3.20;43.00
72440;DHT22;60446;50.752;4.352;2023-02-28T15:46:01;3.10;43.10
72440;DHT22;60446;50.752;4.352;2023-02-28T15:48:36;3.10;43.90
72440;DHT22;60446;50.752;4.352;2023-02-28T15:51:16;3.10;44.20
72440;DHT22;60446;50.752;4.352;2023-02-28T15:53:54;3.10;44.00
72440;DHT22;60446;50.752;4.352;2023-02-28T15:56:51;3.10;44.40
72440;DHT22;60446;50.752;4.352;2023-02-28T15:59:22;3.10;43.10
72440;DHT22;60446;50.752;4.352;2023-02-28T16:07:34;3.00;44.50
72440;DHT22;60446;50.752;4.352;2023-02-28T16:10:04;3.00;44.50
72440;DHT22;60446;50.752;4.352;2023-02-28T16:12:34;2.90;44.60
72440;DHT22;60446;50.752;4.352;2023-02-28T16:17:50;2.90;45.00
72440;DHT22;60446;50.752;4.352;2023-02-28T16:20:30;2.90;45.20
72440;DHT22;60446;50.752;4.352;2023-02-28T16:23:00;2.90;45.30
72440;DHT22;60446;50.752;4.352;2023-02-28T16:25:38;2.80;45.10
72440;DHT22;60446;50.752;4.352;2023-02-28T16:28:30;2.70;45.50
72440;DHT22;60446;50.752;4.352;2023-02-28T16:31:00;2.70;46.40
72440;DHT22;60446;50.752;4.352;2023-02-28T16:33:32;2.60;45.20
72440;DHT22;60446;50.752;4.352;2023-02-28T16:36:00;2.70;45.10
72440;DHT22;60446;50.752;4.352;2023-02-28T16:38:28;2.60;45.90
72440;DHT22;60446;50.752;4.352;2023-02-28T16:40:56;2.50;45.60
72440;DHT22;60446;50.752;4.352;2023-02-28T16:43:26;2.50;45.90
72440;DHT22;60446;50.752;4.352;2023-02-28T16:45:56;2.50;46.10
72440;DHT22;60446;50.752;4.352;2023-02-28T16:48:27;2.50;45.70
72440;DHT22;60446;50.752;4.352;2023-02-28T16:50:57;2.40;46.50
72440;DHT22;60446;50.752;4.352;2023-02-28T16:53:24;2.40;46.20
72440;DHT22;60446;50.752;4.352;2023-02-28T16:55:58;2.30;46.40
72440;DHT22;60446;50.752;4.352;2023-02-28T16:58:43;2.30;47.10
72440;DHT22;60446;50.752;4.352;2023-02-28T17:01:32;2.20;46.70
72440;DHT22;60446;50.752;4.352;2023-02-28T17:04:08;2.20;46.80
72440;DHT22;60446;50.752;4.352;2023-02-28T17:06:45;2.10;47.70
72440;DHT22;60446;50.752;4.352;2023-02-28T17:09:21;2.00;47.70
72440;DHT22;60446;50.752;4.352;2023-02-28T17:12:06;1.90;48.30
72440;DHT22;60446;50.752;4.352;2023-02-28T17:14:35;1.80;48.20
72440;DHT22;60446;50.752;4.352;2023-02-28T17:17:07;1.90;48.10
72440;DHT22;60446;50.752;4.352;2023-02-28T17:19:39;1.80;47.90
72440;DHT22;60446;50.752;4.352;2023-02-28T17:22:16;1.80;49.00
72440;DHT22;60446;50.752;4.352;2023-02-28T17:24:46;1.70;48.30
72440;DHT22;60446;50.752;4.352;2023-02-28T17:27:25;1.70;49.00
72440;DHT22;60446;50.752;4.352;2023-02-28T17:29:58;1.60;49.00
72440;DHT22;60446;50.752;4.352;2023-02-28T17:32:31;1.50;49.40
72440;DHT22;60446;50.752;4.352;2023-02-28T17:35:18;1.40;49.70
72440;DHT22;60446;50.752;4.352;2023-02-28T17:37:47;1.40;49.40
72440;DHT22;60446;50.752;4.352;2023-02-28T17:40:29;1.40;49.50
72440;DHT22;60446;50.752;4.352;2023-02-28T17:43:11;1.30;49.80
72440;DHT22;60446;50.752;4.352;2023-02-28T17:45:49;1.40;49.00
72440;DHT22;60446;50.752;4.352;2023-02-28T17:48:58;1.30;49.30
72440;DHT22;60446;50.752;4.352;2023-02-28T17:51:46;1.30;50.00
72440;DHT22;60446;50.752;4.352;2023-02-28T17:54:24;1.20;50.00
72440;DHT22;60446;50.752;4.352;2023-02-28T17:57:03;1.10;51.10
72440;DHT22;60446;50.752;4.352;2023-02-28T17:59:32;1.00;50.40
72440;DHT22;60446;50.752;4.352;2023-02-28T18:02:12;0.90;51.20
72440;DHT22;60446;50.752;4.352;2023-02-28T18:04:51;0.90;50.70
72440;DHT22;60446;50.752;4.352;2023-02-28T18:07:34;0.80;51.20
72440;DHT22;60446;50.752;4.352;2023-02-28T18:10:14;0.70;52.50
72440;DHT22;60446;50.752;4.352;2023-02-28T18:12:59;0.70;51.90
72440;DHT22;60446;50.752;4.352;2023-02-28T18:15:35;0.60;51.80
72440;DHT22;60446;50.752;4.352;2023-02-28T18:18:10;0.60;52.30
72440;DHT22;60446;50.752;4.352;2023-02-28T18:20:52;0.50;52.80
72440;DHT22;60446;50.752;4.352;2023-02-28T18:23:43;0.50;52.40
72440;DHT22;60446;50.752;4.352;2023-02-28T18:26:33;0.50;52.20
72440;DHT22;60446;50.752;4.352;2023-02-28T18:29:16;0.50;52.00
72440;DHT22;60446;50.752;4.352;2023-02-28T18:32:04;0.50;52.00
72440;DHT22;60446;50.752;4.352;2023-02-28T18:34:39;0.50;51.60
72440;DHT22;60446;50.752;4.352;2023-02-28T18:37:59;0.50;51.60
72440;DHT22;60446;50.752;4.352;2023-02-28T18:40:37;0.50;51.70
72440;DHT22;60446;50.752;4.352;2023-02-28T18:43:29;0.50;51.10
72440;DHT22;60446;50.752;4.352;2023-02-28T18:46:08;0.60;51.50
72440;DHT22;60446;50.752;4.352;2023-02-28T18:48:59;0.50;51.80
72440;DHT22;60446;50.752;4.352;2023-02-28T18:51:50;0.50;51.60
72440;DHT22;60446;50.752;4.352;2023-02-28T18:54:46;0.50;51.90
72440;DHT22;60446;50.752;4.352;2023-02-28T18:57:25;0.40;52.40
72440;DHT22;60446;50.752;4.352;2023-02-28T19:00:30;0.40;52.90
72440;DHT22;60446;50.752;4.352;2023-02-28T19:03:21;0.30;52.90
72440;DHT22;60446;50.752;4.352;2023-02-28T19:06:27;0.20;53.30
72440;DHT22;60446;50.752;4.352;2023-02-28T19:09:22;0.20;53.00
72440;DHT22;60446;50.752;4.352;2023-02-28T19:12:14;0.10;53.20
72440;DHT22;60446;50.752;4.352;2023-02-28T19:15:03;0.10;53.20
72440;DHT22;60446;50.752;4.352;2023-02-28T19:17:50;0.10;53.20
72440;DHT22;60446;50.752;4.352;2023-02-28T19:21:03;0.10;52.80
72440;DHT22;60446;50.752;4.352;2023-02-28T19:23:56;0.10;53.20
72440;DHT22;60446;50.752;4.352;2023-02-28T19:26:53;0.10;53.00
72440;DHT22;60446;50.752;4.352;2023-02-28T19:29:57;0.10;53.20
72440;DHT22;60446;50.752;4.352;2023-02-28T19:32:48;0.00;54.10
72440;DHT22;60446;50.752;4.352;2023-02-28T19:35:39;0.00;53.90
72440;DHT22;60446;50.752;4.352;2023-02-28T19:38:40;0.00;53.60
72440;DHT22;60446;50.752;4.352;2023-02-28T19:41:45;-0.10;54.60
72440;DHT22;60446;50.752;4.352;2023-02-28T19:44:41;-0.20;54.90
72440;DHT22;60446;50.752;4.352;2023-02-28T19:47:26;-0.30;55.50
72440;DHT22;60446;50.752;4.352;2023-02-28T19:50:57;-0.40;55.80
72440;DHT22;60446;50.752;4.352;2023-02-28T19:54:13;-0.50;55.70
72440;DHT22;60446;50.752;4.352;2023-02-28T19:57:04;-0.50;56.80
72440;DHT22;60446;50.752;4.352;2023-02-28T19:59:47;-0.60;57.10
72440;DHT22;60446;50.752;4.352;2023-02-28T20:02:41;-0.60;56.90
72440;DHT22;60446;50.752;4.352;2023-02-28T20:05:25;-0.60;57.20
72440;DHT22;60446;50.752;4.352;2023-02-28T20:08:09;-0.70;57.80
72440;DHT22;60446;50.752;4.352;2023-02-28T20:10:42;-0.70;58.10
72440;DHT22;60446;50.752;4.352;2023-02-28T20:16:33;-0.80;58.00
72440;DHT22;60446;50.752;4.352;2023-02-28T20:19:15;-0.80;58.10
72440;DHT22;60446;50.752;4.352;2023-02-28T20:22:03;-0.90;58.70
72440;DHT22;60446;50.752;4.352;2023-02-28T20:24:42;-0.90;58.60
72440;DHT22;60446;50.752;4.352;2023-02-28T20:27:31;-1.00;58.80
72440;DHT22;60446;50.752;4.352;2023-02-28T20:30:07;-1.00;60.10
72440;DHT22;60446;50.752;4.352;2023-02-28T20:32:52;-1.10;59.40
72440;DHT22;60446;50.752;4.352;2023-02-28T20:35:46;-1.00;58.70
72440;DHT22;60446;50.752;4.352;2023-02-28T20:38:32;-1.00;58.70
72440;DHT22;60446;50.752;4.352;2023-02-28T20:41:51;-1.00;58.70
72440;DHT22;60446;50.752;4.352;2023-02-28T20:50:15;-0.90;57.80
72440;DHT22;60446;50.752;4.352;2023-02-28T20:53:18;-0.90;58.10
72440;DHT22;60446;50.752;4.352;2023-02-28T20:56:01;-0.80;57.70
72440;DHT22;60446;50.752;4.352;2023-02-28T20:59:21;-0.80;57.80
72440;DHT22;60446;50.752;4.352;2023-02-28T21:02:16;-0.70;58.00
72440;DHT22;60446;50.752;4.352;2023-02-28T21:06:35;-0.80;58.00
72440;DHT22;60446;50.752;4.352;2023-02-28T21:09:40;-0.80;58.10